createdAt,value
2022-10-11T00:02:01.160Z,7.89
2022-10-11T00:06:12.693Z,7.88
2022-10-11T00:10:24.610Z,7.78
2022-10-11T00:14:36.249Z,7.80
2022-10-11T00:18:54.614Z,7.79
2022-10-11T00:23:06.188Z,7.76
2022-10-11T00:27:17.703Z,7.72
2022-10-11T00:31:34.706Z,7.59
2022-10-11T00:35:47.280Z,7.66
2022-10-11T00:39:58.891Z,7.63
2022-10-11T00:44:18.666Z,7.61
2022-10-11T00:48:48.840Z,7.59
2022-10-11T00:53:05.700Z,7.54
2022-10-11T00:57:22.733Z,7.59
2022-10-11T01:01:34.450Z,7.58
2022-10-11T01:05:46.223Z,7.50
2022-10-11T01:09:58.349Z,7.43
2022-10-11T01:14:43.512Z,7.49
2022-10-11T01:19:04.817Z,7.48
2022-10-11T01:23:53.873Z,7.48
2022-10-11T01:28:30.671Z,7.43
2022-10-11T01:32:55.973Z,7.45
2022-10-11T01:37:16.692Z,7.40
2022-10-11T01:41:35.397Z,7.43
2022-10-11T01:45:51.649Z,7.36
2022-10-11T01:50:03.862Z,7.31
2022-10-11T01:55:09.056Z,7.25
2022-10-11T01:59:33.662Z,7.22
2022-10-11T02:03:55.122Z,7.23
2022-10-11T02:08:45.021Z,7.18
2022-10-11T02:13:20.733Z,7.09
2022-10-11T02:17:36.675Z,7.04
2022-10-11T02:21:54.495Z,6.96
2022-10-11T02:26:07.417Z,6.93
2022-10-11T02:30:19.410Z,6.87
2022-10-11T02:34:35.459Z,6.85
2022-10-11T02:38:54.838Z,6.80
2022-10-11T02:43:36.481Z,6.76
2022-10-11T02:47:48.498Z,6.71
2022-10-11T02:52:00.389Z,6.69
2022-10-11T02:56:12.029Z,6.65
2022-10-11T03:00:23.565Z,6.61
2022-10-11T03:04:35.118Z,6.55
2022-10-11T03:08:46.676Z,6.47
2022-10-11T03:12:58.255Z,6.49
2022-10-11T03:17:34.346Z,6.44
2022-10-11T03:21:41.342Z,6.48
2022-10-11T03:25:52.940Z,6.45
2022-10-11T03:30:05.210Z,6.52
2022-10-11T03:34:16.766Z,6.58
2022-10-11T03:38:28.553Z,6.73
2022-10-11T03:42:40.825Z,6.88
2022-10-11T03:46:52.442Z,6.90
2022-10-11T03:51:04.334Z,6.98
2022-10-11T03:55:16.038Z,7.02
2022-10-11T03:59:27.593Z,7.13
2022-10-11T04:03:39.154Z,7.11
2022-10-11T04:07:51.399Z,7.11
2022-10-11T04:12:03.681Z,7.05
2022-10-11T04:16:15.504Z,7.07
2022-10-11T04:20:27.054Z,7.10
2022-10-11T04:24:38.586Z,7.21
2022-10-11T04:28:50.359Z,7.29
2022-10-11T04:33:02.268Z,7.37
2022-10-11T04:37:13.977Z,7.39
2022-10-11T04:41:25.516Z,7.36
2022-10-11T04:45:37.151Z,7.28
2022-10-11T04:49:48.705Z,7.28
2022-10-11T04:54:00.313Z,7.17
2022-10-11T04:58:11.823Z,7.16
2022-10-11T05:02:23.450Z,7.03
2022-10-11T05:06:35.091Z,6.96
2022-10-11T05:11:06.364Z,6.94
2022-10-11T05:15:18.073Z,6.80
2022-10-11T05:19:29.624Z,6.68
2022-10-11T05:23:41.730Z,6.72
2022-10-11T05:27:53.333Z,6.64
2022-10-11T05:32:05.075Z,6.59
2022-10-11T05:36:16.790Z,6.45
2022-10-11T05:40:28.380Z,6.52
2022-10-11T05:44:39.996Z,6.49
2022-10-11T05:48:51.548Z,6.47
2022-10-11T05:53:04.086Z,6.39
2022-10-11T05:57:16.151Z,6.44
2022-10-11T06:01:27.999Z,6.49
2022-10-11T06:05:40.054Z,6.51
2022-10-11T06:09:52.093Z,6.46
2022-10-11T06:14:03.835Z,6.55
2022-10-11T06:18:15.368Z,6.64
2022-10-11T06:22:27.492Z,6.74
2022-10-11T06:26:39.147Z,6.92
2022-10-11T06:30:50.646Z,7.10
2022-10-11T06:35:03.357Z,7.22
2022-10-11T06:39:14.954Z,7.39
2022-10-11T06:43:26.679Z,7.64
2022-10-11T06:47:38.170Z,7.94
2022-10-11T06:51:49.637Z,8.21
2022-10-11T06:56:11.822Z,8.51
2022-10-11T07:00:23.307Z,8.81
2022-10-11T07:04:34.805Z,9.11
2022-10-11T07:08:47.025Z,9.46
2022-10-11T07:12:58.501Z,9.72
2022-10-11T07:17:09.996Z,9.91
2022-10-11T07:21:21.943Z,10.22
2022-10-11T07:25:33.488Z,10.56
2022-10-11T07:29:45.085Z,10.96
2022-10-11T07:33:56.635Z,11.29
2022-10-11T07:38:08.538Z,11.51
2022-10-11T07:42:20.094Z,11.66
2022-10-11T07:46:31.838Z,12.05
2022-10-11T07:50:43.435Z,12.59
2022-10-11T07:54:55.003Z,13.03
2022-10-11T07:59:08.020Z,13.21
2022-10-11T08:03:19.624Z,13.55
2022-10-11T08:07:31.210Z,14.00
2022-10-11T08:11:42.815Z,14.62
2022-10-11T08:15:54.946Z,15.37
2022-10-11T08:20:06.736Z,16.02
2022-10-11T08:24:20.828Z,16.41
2022-10-11T08:28:33.156Z,17.15
2022-10-11T08:32:44.786Z,17.94
2022-10-11T08:36:56.324Z,18.73
2022-10-11T08:41:26.218Z,19.41
2022-10-11T08:45:50.221Z,20.02
2022-10-11T08:50:03.850Z,20.50
2022-10-11T08:54:34.374Z,21.11
2022-10-11T08:58:57.627Z,21.56
2022-10-11T09:03:39.468Z,21.97
2022-10-11T09:08:13.863Z,22.34
2022-10-11T09:12:46.888Z,22.63
2022-10-11T09:17:23.269Z,22.98
2022-10-11T09:21:34.779Z,23.13
2022-10-11T09:26:05.443Z,23.18
2022-10-11T09:30:19.477Z,23.45
2022-10-11T09:34:33.526Z,24.06
2022-10-11T09:39:12.874Z,24.25
2022-10-11T09:43:24.630Z,24.40
2022-10-11T09:47:36.197Z,24.55
2022-10-11T09:51:56.725Z,24.72
2022-10-11T09:56:09.242Z,24.88
2022-10-11T10:00:24.493Z,24.86
2022-10-11T10:04:57.014Z,24.91
2022-10-11T10:09:30.186Z,24.96
2022-10-11T10:13:45.210Z,24.94
2022-10-11T10:17:57.182Z,24.81
2022-10-11T10:22:26.993Z,24.74
2022-10-11T10:26:40.203Z,25.01
2022-10-11T10:30:54.362Z,25.12
2022-10-11T10:35:21.905Z,25.01
2022-10-11T10:39:50.853Z,25.14
2022-10-11T10:44:03.182Z,24.79
2022-10-11T10:49:19.115Z,24.56
2022-10-11T10:53:33.104Z,24.56
2022-10-11T10:58:13.986Z,24.61
2022-10-11T11:02:50.286Z,24.64
2022-10-11T11:07:16.976Z,24.47
2022-10-11T11:11:28.462Z,24.05
2022-10-11T11:15:52.982Z,23.97
2022-10-11T11:20:27.336Z,24.41
2022-10-11T11:25:04.242Z,24.51
2022-10-11T11:29:22.200Z,24.57
2022-10-11T11:33:47.816Z,24.48
2022-10-11T11:38:29.522Z,24.60
2022-10-11T11:42:47.532Z,24.47
2022-10-11T11:47:17.992Z,24.66
2022-10-11T11:51:38.969Z,24.97
2022-10-11T11:56:28.074Z,25.40
2022-10-11T12:01:03.015Z,25.45
2022-10-11T12:05:19.050Z,25.51
2022-10-11T12:09:32.209Z,25.41
2022-10-11T12:13:44.622Z,25.56
2022-10-11T12:17:56.104Z,25.57
2022-10-11T12:22:58.465Z,25.16
2022-10-11T12:27:37.223Z,24.79
2022-10-11T12:32:14.101Z,24.13
2022-10-11T12:36:31.416Z,23.29
2022-10-11T12:40:47.024Z,22.56
2022-10-11T12:45:10.777Z,21.96
2022-10-11T12:49:55.821Z,21.76
2022-10-11T12:54:29.143Z,21.94
2022-10-11T12:58:48.074Z,22.21
2022-10-11T13:03:05.831Z,22.13
2022-10-11T13:07:23.562Z,21.84
2022-10-11T13:11:40.340Z,21.58
2022-10-11T13:15:54.075Z,21.21
2022-10-11T13:20:20.694Z,20.78
2022-10-11T13:24:40.061Z,20.31
2022-10-11T13:28:51.850Z,20.08
2022-10-11T13:33:11.126Z,19.81
2022-10-11T13:37:26.053Z,19.73
2022-10-11T13:41:37.723Z,19.60
2022-10-11T13:45:49.375Z,19.61
2022-10-11T13:50:31.604Z,19.67
2022-10-11T13:54:58.893Z,19.73
2022-10-11T13:59:18.955Z,19.76
2022-10-11T14:03:40.560Z,19.79
2022-10-11T14:07:52.370Z,19.72
2022-10-11T14:12:25.843Z,19.49
2022-10-11T14:16:37.482Z,19.23
2022-10-11T14:20:49.061Z,19.05
2022-10-11T14:25:00.630Z,18.66
2022-10-11T14:29:33.878Z,18.49
2022-10-11T14:33:45.636Z,18.51
2022-10-11T14:37:58.060Z,18.54
2022-10-11T14:42:11.937Z,18.56
2022-10-11T14:46:26.405Z,18.55
2022-10-11T14:50:52.647Z,18.57
2022-10-11T14:55:04.659Z,18.60
2022-10-11T14:59:18.430Z,18.63
2022-10-11T15:03:30.030Z,18.63
2022-10-11T15:07:41.641Z,18.58
2022-10-11T15:11:54.787Z,18.52
2022-10-11T15:16:07.360Z,18.55
2022-10-11T15:20:40.937Z,18.47
2022-10-11T15:24:52.523Z,18.27
2022-10-11T15:29:04.490Z,18.17
2022-10-11T15:33:16.044Z,18.20
2022-10-11T15:37:27.602Z,18.11
2022-10-11T15:41:39.219Z,18.16
2022-10-11T15:45:50.815Z,18.15
2022-10-11T15:50:02.459Z,18.12
2022-10-11T15:54:14.097Z,18.02
2022-10-11T15:58:29.299Z,18.07
2022-10-11T16:02:40.911Z,18.01
2022-10-11T16:06:52.467Z,17.91
2022-10-11T16:11:05.550Z,17.86
2022-10-11T16:15:17.504Z,17.80
2022-10-11T16:19:29.126Z,17.69
2022-10-11T16:23:40.770Z,17.65
2022-10-11T16:27:52.599Z,17.65
2022-10-11T16:32:04.332Z,17.64
2022-10-11T16:36:37.027Z,17.50
2022-10-11T16:40:48.621Z,17.44
2022-10-11T16:45:00.751Z,17.27
2022-10-11T16:49:12.514Z,17.15
2022-10-11T16:53:24.089Z,16.75
2022-10-11T16:57:37.684Z,16.56
2022-10-11T17:01:49.412Z,16.38
2022-10-11T17:06:01.098Z,16.18
2022-10-11T17:10:12.727Z,15.96
2022-10-11T17:14:24.270Z,15.78
2022-10-11T17:18:36.117Z,15.52
2022-10-11T17:22:47.814Z,15.31
2022-10-11T17:26:59.406Z,15.15
2022-10-11T17:31:11.348Z,14.98
2022-10-11T17:35:22.945Z,14.80
2022-10-11T17:39:34.607Z,14.62
2022-10-11T17:43:46.850Z,14.45
2022-10-11T17:48:00.560Z,14.34
2022-10-11T17:52:12.108Z,14.22
2022-10-11T17:56:29.566Z,14.16
2022-10-11T18:00:43.786Z,14.04
2022-10-11T18:04:55.378Z,13.94
2022-10-11T18:09:07.179Z,13.86
2022-10-11T18:13:19.038Z,13.85
2022-10-11T18:17:31.063Z,13.81
2022-10-11T18:21:42.726Z,13.73
2022-10-11T18:25:54.523Z,13.68
2022-10-11T18:30:06.964Z,13.66
2022-10-11T18:34:18.554Z,13.56
2022-10-11T18:38:30.169Z,13.50
2022-10-11T18:42:41.734Z,13.46
2022-10-11T18:46:54.077Z,13.34
2022-10-11T18:51:08.063Z,13.29
2022-10-11T18:55:19.861Z,13.11
2022-10-11T18:59:32.901Z,13.06
2022-10-11T19:03:45.725Z,12.89
2022-10-11T19:07:57.193Z,12.82
2022-10-11T19:12:08.687Z,12.66
2022-10-11T19:16:20.561Z,12.61
2022-10-11T19:20:35.635Z,12.50
2022-10-11T19:24:47.172Z,12.40
2022-10-11T19:29:05.786Z,12.27
2022-10-11T19:33:17.406Z,12.16
2022-10-11T19:37:29.131Z,12.11
2022-10-11T19:41:41.876Z,11.99
2022-10-11T19:46:04.497Z,11.92
2022-10-11T19:50:16.081Z,11.83
2022-10-11T19:54:28.121Z,11.77
2022-10-11T19:58:40.306Z,11.71
2022-10-11T20:02:51.831Z,11.60
2022-10-11T20:07:03.397Z,11.52
2022-10-11T20:11:16.707Z,11.47
2022-10-11T20:15:28.180Z,11.43
2022-10-11T20:19:40.137Z,11.31
2022-10-11T20:23:52.973Z,11.25
2022-10-11T20:28:04.441Z,11.15
2022-10-11T20:32:15.884Z,11.11
2022-10-11T20:36:29.991Z,11.06
2022-10-11T20:40:41.516Z,11.03
2022-10-11T20:44:52.966Z,10.98
2022-10-11T20:49:07.555Z,10.96
2022-10-11T20:53:19.144Z,10.90
2022-10-11T20:57:31.667Z,11.04
2022-10-11T21:01:43.587Z,10.96
2022-10-11T21:05:59.885Z,10.92
2022-10-11T21:10:11.514Z,10.82
2022-10-11T21:14:23.784Z,10.76
2022-10-11T21:18:35.502Z,10.64
2022-10-11T21:22:47.098Z,10.59
2022-10-11T21:27:00.804Z,10.45
2022-10-11T21:31:16.416Z,10.32
2022-10-11T21:35:29.823Z,10.36
2022-10-11T21:39:41.424Z,10.22
2022-10-11T21:43:53.383Z,10.17
2022-10-11T21:48:05.271Z,10.09
2022-10-11T21:52:17.168Z,9.88
2022-10-11T21:56:29.460Z,10.03
2022-10-11T22:00:41.025Z,9.93
2022-10-11T22:04:52.703Z,9.92
2022-10-11T22:09:05.746Z,9.86
2022-10-11T22:13:17.431Z,9.74
2022-10-11T22:17:28.946Z,9.73
2022-10-11T22:21:44.852Z,9.69
2022-10-11T22:26:08.200Z,9.66
2022-10-11T22:30:19.915Z,9.63
2022-10-11T22:34:33.217Z,9.62
2022-10-11T22:38:45.970Z,9.53
2022-10-11T22:42:57.504Z,9.47
2022-10-11T22:47:09.035Z,9.43
2022-10-11T22:51:20.639Z,9.37
2022-10-11T22:55:32.319Z,9.32
2022-10-11T22:59:43.871Z,9.24
2022-10-11T23:03:56.382Z,9.21
2022-10-11T23:08:09.568Z,9.16
2022-10-11T23:12:21.107Z,9.19
2022-10-11T23:16:32.579Z,9.13
2022-10-11T23:20:44.650Z,9.08
2022-10-11T23:24:56.184Z,9.07
2022-10-11T23:29:07.677Z,9.01
2022-10-11T23:33:19.193Z,8.98
2022-10-11T23:37:30.792Z,8.92
2022-10-11T23:41:43.575Z,8.92
2022-10-11T23:45:55.896Z,8.90
2022-10-11T23:50:08.458Z,8.89
2022-10-11T23:54:19.949Z,8.89
2022-10-11T23:58:31.457Z,8.82
